Time;durP1;ratioP1;P1;durP2;ratioP2;P2;SDS_P1;SDS_P2;PMS_P1;PMS_P2;Temp;Humidity;BMP_temperature;BMP_pressure;BME280_temperature;BME280_humidity;BME280_pressure;Samples;Min_cycle;Max_cycle;Signal;HPM_P1;HPM_P2
2022/12/20 00:00:44;;;;;;;7.65;5.78;;;;;;;-0.60;75.12;103847.81;5052144;28;20036;-80
2022/12/20 00:03:10;;;;;;;11.55;8.13;;;;;;;-0.57;75.49;103856.41;5035069;28;20033;-80
2022/12/20 00:05:37;;;;;;;5.45;4.93;;;;;;;-0.65;75.39;103853.50;5051683;28;20144;-79
2022/12/20 00:08:02;;;;;;;7.40;4.13;;;;;;;-0.76;75.47;103849.56;5035150;28;20395;-81
2022/12/20 00:10:28;;;;;;;20.35;6.65;;;;;;;-0.94;76.10;103845.31;5035461;28;20548;-80
2022/12/20 00:12:54;;;;;;;8.77;5.47;;;;;;;-0.83;75.77;103844.97;5035211;28;20445;-80
2022/12/20 00:15:19;;;;;;;10.38;7.38;;;;;;;-1.02;75.85;103822.84;5035198;28;20029;-80
2022/12/20 00:17:45;;;;;;;11.32;6.22;;;;;;;-1.01;75.80;103833.06;5018109;28;20136;-80
2022/12/20 00:20:10;;;;;;;18.30;5.40;;;;;;;-1.02;76.08;103835.53;5051684;28;20024;-80
2022/12/20 00:22:36;;;;;;;5.10;2.75;;;;;;;-1.02;76.29;103836.41;5051369;28;20033;-80
2022/12/20 00:25:02;;;;;;;5.68;4.75;;;;;;;-0.95;76.37;103850.31;5035035;28;20029;-80
2022/12/20 00:27:28;;;;;;;6.32;4.40;;;;;;;-0.81;76.28;103851.00;5051501;28;20040;-80
2022/12/20 00:29:54;;;;;;;12.13;5.18;;;;;;;-0.88;76.03;103845.63;5018529;28;20445;-80
2022/12/20 00:32:19;;;;;;;8.10;5.30;;;;;;;-0.80;76.05;103852.72;5050818;28;20083;-80
2022/12/20 00:34:45;;;;;;;8.85;4.53;;;;;;;-0.89;76.07;103845.53;5034851;28;20430;-80
2022/12/20 00:37:10;;;;;;;13.27;7.00;;;;;;;-0.72;75.96;103857.41;5052218;28;20110;-80
2022/12/20 00:39:36;;;;;;;4.45;3.83;;;;;;;-0.83;75.85;103843.28;5034348;28;20040;-80
2022/12/20 00:42:01;;;;;;;7.43;6.07;;;;;;;-0.90;75.34;103826.84;5034486;28;20100;-80
2022/12/20 00:44:27;;;;;;;7.85;4.35;;;;;;;-0.91;75.36;103820.03;5018153;28;20044;-80
2022/12/20 00:46:52;;;;;;;5.43;3.92;;;;;;;-0.80;75.35;103842.56;5034274;28;20033;-80
2022/12/20 00:49:18;;;;;;;12.50;6.15;;;;;;;-0.85;75.07;103836.41;5034467;28;20110;-82
2022/12/20 00:51:44;;;;;;;11.02;6.10;;;;;;;-0.85;75.32;103838.94;5034499;28;20033;-80
2022/12/20 00:54:09;;;;;;;5.13;4.47;;;;;;;-0.91;75.28;103834.41;5051059;28;20070;-80
2022/12/20 00:56:34;;;;;;;13.15;5.20;;;;;;;-0.97;75.53;103837.53;5050725;28;20506;-80
2022/12/20 00:59:00;;;;;;;8.50;5.00;;;;;;;-1.02;76.41;103831.34;5034189;28;20028;-80
2022/12/20 01:01:27;;;;;;;3.85;3.60;;;;;;;-0.92;76.09;103838.63;5033957;28;20060;-80
2022/12/20 01:03:53;;;;;;;8.30;5.95;;;;;;;-0.96;76.11;103831.66;5050880;28;20406;-80
2022/12/20 01:06:19;;;;;;;7.15;4.05;;;;;;;-1.25;75.47;103765.81;5050777;28;20025;-80
2022/12/20 01:08:44;;;;;;;5.05;3.50;;;;;;;-0.98;75.71;103812.94;5034126;28;20029;-80
2022/12/20 01:11:15;;;;;;;4.25;3.88;;;;;;;-0.90;76.06;103811.59;5050760;28;20032;-80
2022/12/20 01:13:43;;;;;;;15.82;8.25;;;;;;;-0.98;75.67;103807.84;5017387;28;20039;-82
2022/12/20 01:16:14;;;;;;;8.60;6.28;;;;;;;-0.92;75.47;103818.28;5033888;28;20043;-81
2022/12/20 01:18:40;;;;;;;8.88;5.80;;;;;;;-0.94;75.87;103809.72;5034062;28;20053;-80
2022/12/20 01:21:10;;;;;;;6.35;5.28;;;;;;;-0.82;75.94;103804.38;5050263;28;20486;-81
2022/12/20 01:23:35;;;;;;;12.10;5.57;;;;;;;-0.88;75.37;103796.47;5034254;28;20028;-80
2022/12/20 01:26:03;;;;;;;13.40;7.70;;;;;;;-0.83;75.33;103804.28;5033763;28;20119;-80
2022/12/20 01:28:29;;;;;;;2.97;2.75;;;;;;;-0.83;75.16;103807.69;5033589;28;20033;-80
2022/12/20 01:30:54;;;;;;;7.72;5.82;;;;;;;-0.85;75.28;103793.19;5017317;28;20029;-81
2022/12/20 01:33:20;;;;;;;16.67;6.18;;;;;;;-0.81;75.34;103805.22;5050590;28;20403;-80
2022/12/20 01:35:59;;;;;;;7.72;5.40;;;;;;;-0.81;75.62;103795.06;5033594;28;20083;-81
2022/12/20 01:38:24;;;;;;;7.43;5.70;;;;;;;-0.77;75.08;103797.84;5049969;28;20067;-80
2022/12/20 01:40:50;;;;;;;8.35;5.05;;;;;;;-0.71;75.33;103787.94;5017102;28;20573;-80
2022/12/20 01:43:16;;;;;;;11.60;6.40;;;;;;;-0.70;75.25;103789.69;5049782;28;20410;-80
2022/12/20 01:45:42;;;;;;;9.68;4.85;;;;;;;-0.71;74.57;103787.94;5033368;28;20403;-80
2022/12/20 01:48:07;;;;;;;10.38;5.93;;;;;;;-0.75;74.75;103782.66;5033230;28;20090;-80
2022/12/20 01:50:33;;;;;;;6.40;5.20;;;;;;;-0.68;74.62;103779.63;5033274;28;20470;-80
2022/12/20 01:52:59;;;;;;;7.13;5.43;;;;;;;-0.65;74.17;103772.13;5032387;28;20025;-80
2022/12/20 01:55:26;;;;;;;6.97;4.55;;;;;;;-0.63;74.46;103778.16;5051068;28;20071;-81
2022/12/20 01:57:53;;;;;;;18.88;8.10;;;;;;;-0.78;74.67;103757.09;5049581;28;20048;-80
2022/12/20 02:00:19;;;;;;;5.68;5.18;;;;;;;-1.03;74.51;103727.94;5033208;28;20036;-80
2022/12/20 02:02:45;;;;;;;11.68;9.80;;;;;;;-0.74;73.98;103776.78;5049862;28;20032;-80
2022/12/20 02:05:13;;;;;;;6.22;4.05;;;;;;;-0.80;73.80;103776.47;5033215;28;20051;-80
2022/12/20 02:07:39;;;;;;;5.15;4.47;;;;;;;-0.97;74.59;103762.97;5017254;28;20120;-80
2022/12/20 02:10:05;;;;;;;9.13;5.30;;;;;;;-1.07;74.63;103761.66;5033059;28;20124;-80
2022/12/20 02:12:41;;;;;;;15.25;4.28;;;;;;;-0.96;74.68;103775.75;5049509;28;20059;-80
2022/12/20 02:15:22;;;;;;;6.47;4.77;;;;;;;-0.93;74.92;103777.56;5049591;28;20082;-80
2022/12/20 02:18:07;;;;;;;7.68;3.55;;;;;;;-0.91;74.59;103764.13;5050748;28;20073;-80
2022/12/20 02:20:53;;;;;;;4.63;4.20;;;;;;;-0.85;74.32;103767.75;5049256;28;20120;-80
2022/12/20 02:23:36;;;;;;;6.63;5.10;;;;;;;-0.88;74.43;103766.81;5065100;28;20032;-80
2022/12/20 02:26:43;;;;;;;10.60;4.20;;;;;;;-0.97;74.55;103763.84;5049335;28;20029;-81
2022/12/20 02:29:27;;;;;;;10.40;4.75;;;;;;;-0.93;74.91;103753.00;5034212;28;20044;-80
2022/12/20 02:32:11;;;;;;;4.20;2.97;;;;;;;-0.92;74.75;103757.28;5049430;28;20104;-80
2022/12/20 02:34:37;;;;;;;14.38;5.22;;;;;;;-1.10;74.43;103712.31;5049079;28;20025;-80
2022/12/20 02:37:03;;;;;;;8.50;5.25;;;;;;;-0.93;74.23;103745.38;5049334;28;20477;-80
2022/12/20 02:39:29;;;;;;;7.38;3.80;;;;;;;-1.01;74.47;103733.97;5049392;28;20078;-81
2022/12/20 02:41:56;;;;;;;7.55;6.03;;;;;;;-1.29;74.40;103687.69;5032131;28;20036;-80
2022/12/20 02:47:11;;;;;;;8.70;6.00;;;;;;;-1.10;75.22;103714.88;5035549;28;20460;-80
2022/12/20 02:49:40;;;;;;;14.50;4.22;;;;;;;-1.07;74.46;103710.81;5032542;28;20513;-80
2022/12/20 02:52:07;;;;;;;9.23;3.25;;;;;;;-0.96;74.19;103727.47;5033179;28;20029;-80
2022/12/20 02:54:33;;;;;;;6.20;3.03;;;;;;;-1.08;74.14;103724.34;5049191;28;20029;-81
2022/12/20 02:57:32;;;;;;;8.57;6.22;;;;;;;-1.00;74.73;103723.00;5048713;28;20521;-81
2022/12/20 03:00:12;;;;;;;17.52;6.68;;;;;;;-1.04;74.72;103716.03;5049362;28;20036;-80
2022/12/20 03:05:22;;;;;;;8.60;3.97;;;;;;;-1.24;74.77;103687.13;5052893;28;20059;-80
2022/12/20 03:07:48;;;;;;;12.63;5.15;;;;;;;-1.02;74.40;103729.69;5053310;28;20483;-80
2022/12/20 03:10:14;;;;;;;7.40;4.50;;;;;;;-1.10;74.56;103710.66;5019513;28;20028;-82
2022/12/20 03:12:40;;;;;;;11.27;6.20;;;;;;;-1.27;75.11;103696.28;5036239;28;20021;-80
2022/12/20 03:15:06;;;;;;;15.30;6.07;;;;;;;-1.12;75.40;103726.63;5036352;28;20035;-80
2022/12/20 03:17:31;;;;;;;17.48;4.72;;;;;;;-1.28;74.68;103708.13;5035983;28;20032;-80
2022/12/20 03:19:57;;;;;;;21.92;5.93;;;;;;;-1.47;74.73;103672.47;5052560;28;20028;-80
2022/12/20 03:22:22;;;;;;;18.55;4.25;;;;;;;-1.34;74.97;103694.25;5052822;28;20021;-80
2022/12/20 03:24:48;;;;;;;8.52;5.45;;;;;;;-1.20;74.95;103714.41;5035752;28;20082;-81
2022/12/20 03:27:14;;;;;;;8.07;5.28;;;;;;;-1.22;75.51;103712.59;5035977;28;20038;-81
2022/12/20 03:29:40;;;;;;;8.70;5.03;;;;;;;-1.25;74.60;103694.69;5052720;28;20029;-80
2022/12/20 03:32:05;;;;;;;4.22;3.55;;;;;;;-1.24;74.44;103694.75;5052489;28;20025;-80
2022/12/20 03:34:31;;;;;;;9.55;6.15;;;;;;;-1.10;74.65;103710.66;5035687;28;20449;-80
2022/12/20 03:36:56;;;;;;;9.15;4.88;;;;;;;-1.19;74.45;103700.03;5052166;28;20032;-80
2022/12/20 03:39:22;;;;;;;7.25;6.32;;;;;;;-1.13;74.47;103695.28;5052019;28;20411;-80
2022/12/20 03:41:47;;;;;;;7.90;4.30;;;;;;;-1.14;74.15;103701.16;5035763;28;20068;-80
2022/12/20 03:44:13;;;;;;;10.98;7.57;;;;;;;-1.19;73.73;103700.91;5035666;28;20036;-80
2022/12/20 03:46:38;;;;;;;6.65;4.60;;;;;;;-1.29;74.42;103700.41;5019237;28;20087;-80
2022/12/20 03:49:04;;;;;;;6.63;4.97;;;;;;;-1.37;74.34;103691.56;5035786;28;20405;-80
2022/12/20 03:51:29;;;;;;;10.52;5.72;;;;;;;-1.43;74.98;103693.78;5035575;28;20037;-80
2022/12/20 03:53:55;;;;;;;6.10;3.90;;;;;;;-1.38;75.01;103699.94;5051876;28;20063;-80
2022/12/20 03:56:20;;;;;;;3.25;2.95;;;;;;;-1.50;75.04;103679.91;5053435;28;20037;-80
2022/12/20 03:58:46;;;;;;;6.63;2.72;;;;;;;-1.45;74.88;103686.97;5019070;28;20556;-80
2022/12/20 04:01:22;;;;;;;6.90;4.32;;;;;;;-1.69;74.68;103640.03;5052116;28;20040;-80
2022/12/20 04:03:48;;;;;;;3.25;1.77;;;;;;;-1.50;75.13;103678.22;5052318;28;20052;-80
2022/12/20 04:06:14;;;;;;;9.23;3.50;;;;;;;-1.36;74.56;103690.75;5052294;28;20475;-80
2022/12/20 04:08:39;;;;;;;4.57;4.18;;;;;;;-1.68;74.94;103657.00;5052811;28;20032;-77
2022/12/20 04:11:16;;;;;;;5.85;3.92;;;;;;;-1.40;77.34;103673.59;5051857;28;20032;-77
2022/12/20 04:13:44;;;;;;;4.63;3.08;;;;;;;-1.28;75.73;103669.13;5036972;28;20029;-81
2022/12/20 04:16:10;;;;;;;4.03;3.28;;;;;;;-1.16;74.27;103690.94;5050958;28;20040;-81
2022/12/20 04:18:36;;;;;;;5.57;3.67;;;;;;;-1.22;73.58;103689.75;5051586;28;20053;-80
2022/12/20 04:21:02;;;;;;;6.07;3.30;;;;;;;-1.24;73.84;103701.50;5051573;28;20518;-80
2022/12/20 04:23:27;;;;;;;6.22;3.13;;;;;;;-1.31;74.02;103690.16;5051230;28;20021;-81
2022/12/20 04:25:52;;;;;;;17.42;4.63;;;;;;;-1.58;74.29;103674.44;5034897;28;20029;-80
2022/12/20 04:28:18;;;;;;;4.75;3.75;;;;;;;-1.57;74.58;103686.38;5051312;28;20033;-80
2022/12/20 04:30:43;;;;;;;7.00;4.13;;;;;;;-1.59;75.10;103693.00;5051539;28;20032;-80
2022/12/20 04:33:09;;;;;;;16.42;5.88;;;;;;;-1.42;75.05;103706.56;5051511;28;20033;-81
2022/12/20 04:35:36;;;;;;;5.55;2.95;;;;;;;-1.38;74.61;103697.41;5034270;28;20025;-80
2022/12/20 04:38:01;;;;;;;5.03;4.47;;;;;;;-1.65;74.53;103677.50;5049303;28;20029;-81
2022/12/20 04:40:27;;;;;;;3.33;2.42;;;;;;;-1.56;74.80;103707.53;5063203;28;20514;-81
2022/12/20 04:42:52;;;;;;;6.65;5.22;;;;;;;-1.93;74.67;103654.06;5034748;28;20036;-83
2022/12/20 04:45:17;;;;;;;1.10;0.90;;;;;;;-1.68;74.56;103690.00;5051084;28;20102;-81
2022/12/20 04:47:43;;;;;;;8.93;5.38;;;;;;;-1.64;75.02;103704.63;5068065;28;20028;-81
2022/12/20 04:50:09;;;;;;;6.68;4.68;;;;;;;-1.58;75.20;103694.75;5067709;28;20076;-81
2022/12/20 04:55:18;;;;;;;12.32;3.63;;;;;;;-1.47;74.16;103693.63;5052090;28;20035;-81
2022/12/20 04:57:44;;;;;;;23.83;5.57;;;;;;;-1.60;74.41;103685.31;5034148;28;20025;-81
2022/12/20 05:00:10;;;;;;;7.30;3.75;;;;;;;-1.59;74.67;103677.78;5017448;28;20090;-81
2022/12/20 05:02:35;;;;;;;12.77;5.68;;;;;;;-1.55;74.85;103679.69;5017462;28;20105;-80
2022/12/20 05:05:01;;;;;;;7.90;3.55;;;;;;;-1.57;74.95;103673.66;5050086;28;20491;-77
2022/12/20 05:07:27;;;;;;;4.22;3.85;;;;;;;-1.59;74.89;103677.78;5051339;28;20029;-76
2022/12/20 05:09:52;;;;;;;11.52;9.05;;;;;;;-1.57;74.42;103666.06;5036656;28;20024;-77
2022/12/20 05:12:18;;;;;;;9.88;5.32;;;;;;;-1.62;74.33;103664.94;5069275;28;20036;-77
2022/12/20 05:14:43;;;;;;;26.40;5.45;;;;;;;-1.86;74.06;103607.91;5053725;28;20457;-77
2022/12/20 05:17:09;;;;;;;4.10;3.53;;;;;;;-1.57;74.13;103665.19;5084372;28;20486;-78
2022/12/20 05:19:34;;;;;;;7.28;4.75;;;;;;;-1.67;74.26;103651.16;5053305;28;20135;-77
2022/12/20 05:27:29;;;;;;;2.72;2.17;;;;;;;-1.75;73.82;103635.53;5063704;28;20086;-92
2022/12/20 05:29:54;;;;;;;4.03;2.85;;;;;;;-1.67;73.75;103648.63;5032317;28;20032;-90
2022/12/20 05:32:20;;;;;;;6.72;3.78;;;;;;;-1.76;74.56;103640.56;5069313;28;20110;-87
2022/12/20 05:34:45;;;;;;;1.58;1.27;;;;;;;-1.59;74.30;103657.47;5035457;28;20068;-92
2022/12/20 05:37:11;;;;;;;6.00;4.68;;;;;;;-1.69;74.27;103647.66;5043369;28;20028;-86
2022/12/20 05:39:36;;;;;;;8.13;4.22;;;;;;;-1.77;74.29;103639.69;5030596;28;20039;-91
2022/12/20 05:42:02;;;;;;;3.05;2.22;;;;;;;-2.00;74.51;103581.81;5063221;28;20482;-82
2022/12/20 05:44:27;;;;;;;4.57;3.47;;;;;;;-1.71;73.78;103645.84;5070937;28;20065;-81
2022/12/20 05:46:53;;;;;;;5.22;3.60;;;;;;;-1.82;74.73;103642.78;5036476;28;20024;-87
2022/12/20 05:49:18;;;;;;;5.82;4.38;;;;;;;-1.74;74.65;103646.56;5052781;28;20039;-78
2022/12/20 05:51:44;;;;;;;4.97;4.30;;;;;;;-1.68;74.08;103645.97;5069603;28;20032;-79
2022/12/20 05:54:10;;;;;;;8.15;4.80;;;;;;;-1.78;74.52;103620.16;5068343;28;20502;-79
2022/12/20 05:56:35;;;;;;;9.85;5.68;;;;;;;-1.66;73.92;103650.38;5068750;28;20485;-80
2022/12/20 05:59:01;;;;;;;8.02;4.57;;;;;;;-1.64;74.07;103642.81;5067583;28;20060;-88
2022/12/20 06:01:26;;;;;;;7.35;2.58;;;;;;;-1.65;74.04;103651.22;5033774;28;20032;-83
2022/12/20 06:03:52;;;;;;;5.68;4.03;;;;;;;-1.64;74.64;103635.22;5067924;28;20070;-83
2022/12/20 06:06:17;;;;;;;8.02;3.60;;;;;;;-1.59;74.09;103639.69;5031871;28;20025;-84
2022/12/20 06:08:43;;;;;;;6.13;3.75;;;;;;;-1.51;74.44;103646.03;5033059;28;20060;-82
2022/12/20 06:11:09;;;;;;;2.45;2.17;;;;;;;-1.58;74.59;103628.75;5021077;28;20132;-90
2022/12/20 06:13:34;;;;;;;5.78;4.28;;;;;;;-1.50;74.33;103632.53;5046946;28;21360;-89
2022/12/20 06:16:00;;;;;;;19.58;7.30;;;;;;;-1.47;74.43;103637.78;5033151;28;20033;-89
2022/12/20 06:18:25;;;;;;;8.90;6.53;;;;;;;-1.39;73.84;103644.88;5018095;28;20144;-92
2022/12/20 06:20:52;;;;;;;10.07;3.55;;;;;;;-1.31;76.67;103629.22;5052885;28;20074;-84
2022/12/20 06:23:17;;;;;;;1.25;1.15;;;;;;;-1.32;74.23;103631.69;5049619;28;20029;-88
2022/12/20 06:25:43;;;;;;;13.18;7.63;;;;;;;-1.39;73.56;103614.41;5020588;28;20071;-82
2022/12/20 06:28:09;;;;;;;6.95;5.20;;;;;;;-1.36;73.13;103643.38;5048831;28;20402;-85
2022/12/20 06:30:35;;;;;;;8.40;5.50;;;;;;;-1.33;73.06;103637.56;5038550;28;20474;-84
2022/12/20 06:33:01;;;;;;;5.85;4.45;;;;;;;-1.23;73.28;103647.38;5066665;28;20029;-84
2022/12/20 06:35:26;;;;;;;10.98;4.70;;;;;;;-1.40;73.03;103620.28;5052616;28;20043;-87
2022/12/20 06:37:52;;;;;;;14.75;4.28;;;;;;;-1.33;73.77;103650.25;5068830;28;20055;-87
2022/12/20 06:40:17;;;;;;;2.75;2.55;;;;;;;-1.31;73.38;103666.44;5036213;28;20064;-88
2022/12/20 06:42:43;;;;;;;8.38;4.65;;;;;;;-1.56;72.82;103611.94;5039175;28;20033;-81
2022/12/20 06:45:09;;;;;;;7.13;3.20;;;;;;;-1.46;72.83;103623.41;5052198;28;20493;-80
2022/12/20 06:47:35;;;;;;;12.35;5.82;;;;;;;-1.34;73.94;103639.22;5068587;28;20077;-79
2022/12/20 06:50:00;;;;;;;9.30;6.13;;;;;;;-1.21;73.17;103645.75;5050940;28;20516;-84
2022/12/20 06:52:26;;;;;;;11.90;4.05;;;;;;;-1.31;72.47;103643.56;5065138;28;20116;-81
2022/12/20 06:54:51;;;;;;;6.57;4.32;;;;;;;-1.31;72.38;103643.56;5051284;28;20032;-82
2022/12/20 06:57:17;;;;;;;11.27;5.53;;;;;;;-1.37;73.01;103638.22;5051942;28;20115;-80
2022/12/20 06:59:42;;;;;;;6.35;4.53;;;;;;;-1.25;72.75;103639.66;5068748;28;20085;-91
2022/12/20 07:02:12;;;;;;;10.85;5.28;;;;;;;-1.36;73.05;103635.75;5039048;28;20025;-91
2022/12/20 07:04:38;;;;;;;10.57;4.88;;;;;;;-1.27;72.83;103630.25;5034993;28;20065;-88
2022/12/20 07:07:03;;;;;;;8.15;4.85;;;;;;;-1.24;72.68;103640.53;5024422;28;20071;-92
2022/12/20 07:09:29;;;;;;;11.07;6.75;;;;;;;-1.30;72.46;103630.06;5050142;28;20036;-89
2022/12/20 07:11:55;;;;;;;9.02;5.15;;;;;;;-1.23;72.68;103649.91;5052453;28;20028;-88
2022/12/20 07:14:21;;;;;;;6.97;4.00;;;;;;;-1.33;72.98;103632.47;5035808;28;20032;-79
2022/12/20 07:16:46;;;;;;;6.03;3.80;;;;;;;-1.30;72.76;103630.94;5067303;28;20036;-78
2022/12/20 07:19:12;;;;;;;21.02;4.57;;;;;;;-1.17;72.99;103642.59;5049192;28;20047;-77
2022/12/20 07:21:38;;;;;;;11.10;8.48;;;;;;;-1.10;72.86;103641.19;5051147;28;20115;-81
2022/12/20 07:24:04;;;;;;;7.85;4.07;;;;;;;-1.10;72.38;103638.66;5066110;28;20173;-83
2022/12/20 07:26:30;;;;;;;11.13;4.00;;;;;;;-1.07;72.12;103636.28;5046369;28;20470;-87
2022/12/20 07:28:56;;;;;;;5.07;3.45;;;;;;;-1.16;72.28;103619.78;5042149;28;20032;-88
2022/12/20 07:31:21;;;;;;;5.03;4.53;;;;;;;-1.15;72.63;103635.91;5049596;28;20067;-89
2022/12/20 07:33:47;;;;;;;5.72;4.93;;;;;;;-1.18;71.96;103623.03;5068391;28;20035;-87
2022/12/20 07:36:12;;;;;;;4.03;3.00;;;;;;;-1.30;72.64;103614.84;5048095;28;20414;-84
2022/12/20 07:38:38;;;;;;;4.47;3.85;;;;;;;-1.22;72.36;103629.66;5068211;28;20031;-90
2022/12/20 07:41:07;;;;;;;5.45;4.18;;;;;;;-1.44;72.78;103591.34;5019073;28;20085;-79
2022/12/20 07:43:33;;;;;;;7.40;5.10;;;;;;;-1.10;72.28;103638.66;5058539;28;20024;-83
2022/12/20 07:45:58;;;;;;;7.53;4.60;;;;;;;-1.25;72.43;103626.97;5067695;28;20086;-82
2022/12/20 07:48:24;;;;;;;13.15;5.43;;;;;;;-1.21;72.83;103633.94;5048108;28;20025;-81
2022/12/20 07:50:54;;;;;;;5.13;3.97;;;;;;;-1.25;72.17;103623.56;5065932;28;20024;-77
2022/12/20 07:53:20;;;;;;;8.50;5.50;;;;;;;-1.22;72.47;103629.66;5050848;28;20028;-78
2022/12/20 07:55:46;;;;;;;4.60;2.80;;;;;;;-1.16;72.60;103634.16;5038755;28;20040;-81
2022/12/20 07:58:11;;;;;;;8.27;6.78;;;;;;;-1.13;72.09;103624.13;5035624;28;20047;-86
2022/12/20 08:00:37;;;;;;;6.90;6.25;;;;;;;-1.03;72.12;103608.53;5053775;28;20028;-78
2022/12/20 08:03:33;;;;;;;5.57;3.97;;;;;;;-1.04;71.66;103616.94;5051289;28;20025;-81
2022/12/20 08:06:02;;;;;;;7.30;4.78;;;;;;;-1.13;71.85;103611.44;5055841;28;20526;-86
2022/12/20 08:08:28;;;;;;;4.57;3.47;;;;;;;-1.10;71.95;103616.66;5070303;28;20029;-87
2022/12/20 08:10:54;;;;;;;10.25;5.55;;;;;;;-1.02;71.17;103606.84;5070861;28;20024;-89
2022/12/20 08:13:19;;;;;;;3.20;2.42;;;;;;;-1.11;71.67;103614.03;5050942;28;20031;-78
2022/12/20 08:15:45;;;;;;;9.60;4.07;;;;;;;-1.20;71.35;103601.78;5070333;28;20028;-86
2022/12/20 08:18:10;;;;;;;8.02;5.13;;;;;;;-1.21;71.63;103605.97;5071344;28;20618;-80
2022/12/20 08:20:36;;;;;;;5.38;3.42;;;;;;;-1.30;72.01;103595.38;5053949;28;20025;-86
2022/12/20 08:23:03;;;;;;;13.05;6.38;;;;;;;-1.26;72.74;103601.50;5053545;28;20422;-86
2022/12/20 08:25:28;;;;;;;1.85;1.70;;;;;;;-1.19;72.21;103599.28;5047783;28;20154;-85
2022/12/20 08:27:54;;;;;;;5.18;3.50;;;;;;;-1.18;72.10;103593.44;5071837;28;20107;-83
2022/12/20 08:30:19;;;;;;;3.75;3.30;;;;;;;-1.08;71.34;103593.84;5073405;28;20090;-85
2022/12/20 08:32:45;;;;;;;4.88;4.28;;;;;;;-1.09;71.80;103595.50;5053338;28;20028;-82
2022/12/20 08:35:11;;;;;;;5.90;4.72;;;;;;;-1.00;71.04;103585.78;5070082;28;20028;-84
2022/12/20 08:37:37;;;;;;;3.63;3.22;;;;;;;-1.12;71.06;103591.97;5048627;28;20532;-81
2022/12/20 08:40:03;;;;;;;12.95;5.00;;;;;;;-1.01;71.33;103599.28;5044355;28;20037;-81
2022/12/20 08:42:28;;;;;;;13.13;4.72;;;;;;;-0.91;71.15;103604.00;5067981;28;20514;-89
2022/12/20 08:44:54;;;;;;;7.03;6.00;;;;;;;-1.02;71.11;103582.31;5036786;28;20028;-92
2022/12/20 08:47:19;;;;;;;3.78;3.05;;;;;;;-0.89;70.88;103578.63;5066800;28;20028;-84
2022/12/20 08:49:45;;;;;;;5.05;3.70;;;;;;;-0.79;70.41;103582.47;5037186;28;20318;-80
2022/12/20 08:52:10;;;;;;;9.48;4.82;;;;;;;-0.94;70.39;103575.91;5070150;28;20075;-81
2022/12/20 08:54:36;;;;;;;6.78;4.82;;;;;;;-0.44;72.73;103592.53;5070003;28;20028;-85
2022/12/20 08:57:01;;;;;;;8.52;5.22;;;;;;;-0.36;70.34;103572.53;5050058;28;20091;-84
2022/12/20 08:59:27;;;;;;;4.10;3.75;;;;;;;-0.52;68.90;103560.81;5042426;28;20055;-80
2022/12/20 09:01:53;;;;;;;12.13;4.70;;;;;;;-0.60;69.32;103567.22;5086444;28;20497;-81
2022/12/20 09:04:20;;;;;;;4.80;3.40;;;;;;;-0.98;69.84;103533.38;5068045;28;20076;-80
2022/12/20 09:06:45;;;;;;;8.88;5.53;;;;;;;-0.84;69.93;103545.81;5068056;28;20030;-80
2022/12/20 09:09:11;;;;;;;10.50;5.32;;;;;;;-0.77;70.01;103550.38;5068456;28;20367;-87
2022/12/20 09:11:36;;;;;;;9.32;6.60;;;;;;;-0.78;70.15;103556.28;5067609;28;20041;-92
2022/12/20 09:14:02;;;;;;;3.13;2.83;;;;;;;-0.90;70.90;103548.94;5037860;28;20486;-93
2022/12/20 09:16:29;;;;;;;5.50;4.82;;;;;;;-0.88;70.33;103535.53;5052850;28;20082;-87
2022/12/20 09:18:56;;;;;;;5.35;2.92;;;;;;;-0.89;70.67;103543.94;5049030;28;20056;-79
2022/12/20 09:21:22;;;;;;;9.52;5.43;;;;;;;-0.79;70.91;103554.50;5069200;28;20034;-83
2022/12/20 09:23:49;;;;;;;15.02;5.75;;;;;;;-0.69;70.75;103546.47;5053166;28;20028;-87
2022/12/20 09:26:15;;;;;;;6.47;3.75;;;;;;;-0.68;70.40;103535.53;5032339;28;20045;-91
2022/12/20 09:28:41;;;;;;;6.10;4.93;;;;;;;-0.75;69.63;103510.66;5040081;28;20491;-85
2022/12/20 09:31:08;;;;;;;4.82;4.30;;;;;;;-0.71;69.12;103525.22;5033810;28;20058;-87
2022/12/20 09:33:33;;;;;;;10.73;5.70;;;;;;;-0.44;71.20;103534.03;5052849;28;20036;-80
2022/12/20 09:35:59;;;;;;;4.47;3.42;;;;;;;-0.49;70.08;103511.75;5069324;28;20031;-80
2022/12/20 09:38:25;;;;;;;14.93;4.50;;;;;;;-0.50;69.09;103520.19;5051988;28;20547;-86
2022/12/20 09:40:58;;;;;;;14.70;5.22;;;;;;;-0.57;69.00;103526.69;5044905;28;20049;-84
2022/12/20 09:43:24;;;;;;;6.53;5.63;;;;;;;-0.69;69.04;103523.59;5044206;28;20035;-78
2022/12/20 09:46:09;;;;;;;3.45;2.78;;;;;;;-0.48;69.81;103536.41;5068173;28;20024;-80
2022/12/20 09:48:36;;;;;;;10.60;5.22;;;;;;;-0.53;68.75;103533.66;5068012;28;20552;-78
2022/12/20 09:51:43;;;;;;;9.20;5.65;;;;;;;-0.57;68.51;103524.16;5051672;28;20039;-85
2022/12/20 09:54:26;;;;;;;10.13;5.68;;;;;;;-0.70;68.38;103499.00;5059204;28;20037;-86
2022/12/20 09:57:03;;;;;;;6.82;4.80;;;;;;;-0.44;67.91;103534.03;5059981;28;20028;-80
2022/12/20 09:59:29;;;;;;;9.52;5.75;;;;;;;-0.49;67.61;103524.47;5066764;28;20029;-80
2022/12/20 10:01:54;;;;;;;14.90;4.75;;;;;;;-0.54;68.08;103508.16;5065332;28;20490;-83
2022/12/20 10:04:21;;;;;;;6.50;3.75;;;;;;;-0.44;68.26;103523.88;5049902;28;20114;-85
2022/12/20 10:07:14;;;;;;;7.05;4.10;;;;;;;-0.48;67.96;103518.59;5065079;28;20092;-77
2022/12/20 10:09:58;;;;;;;;;;;;;;;-0.46;67.81;103510.22;5061711;28;20580;-78
2022/12/20 10:12:29;;;;;;;4.30;3.33;;;;;;;-0.52;67.74;103507.41;5065049;28;19939;-82
2022/12/20 10:15:07;;;;;;;4.75;4.20;;;;;;;-0.50;68.42;103508.34;5068022;28;20043;-77
2022/12/20 10:17:43;;;;;;;11.63;5.45;;;;;;;-0.47;68.55;103508.50;5068174;28;20034;-80
2022/12/20 10:20:36;;;;;;;8.40;4.43;;;;;;;-0.50;67.71;103493.06;5062363;28;20021;-87
2022/12/20 10:23:16;;;;;;;;;;;;;;;-0.48;66.59;103496.59;5046870;28;20029;-91
2022/12/20 10:25:42;;;;;;;3.15;2.13;;;;;;;-0.62;66.31;103462.91;5065791;28;19912;-79
2022/12/20 10:28:12;;;;;;;10.00;5.78;;;;;;;-0.68;67.58;103479.59;5062609;28;20568;-83
2022/12/20 10:30:38;;;;;;;5.72;4.15;;;;;;;-1.02;67.82;103412.06;5048799;28;20032;-76
2022/12/20 10:33:03;;;;;;;7.30;4.15;;;;;;;-0.65;68.15;103456.84;5045815;28;20136;-76
2022/12/20 10:35:33;;;;;;;4.45;4.03;;;;;;;-0.38;67.94;103472.41;5059093;28;20509;-79
2022/12/20 10:38:03;;;;;;;5.05;3.28;;;;;;;-0.39;67.96;103471.53;5048518;28;20036;-79
2022/12/20 10:40:33;;;;;;;11.05;5.55;;;;;;;-0.44;67.58;103446.69;5010908;28;20049;-80
2022/12/20 10:43:00;;;;;;;3.63;3.33;;;;;;;-0.44;68.50;103426.34;5046183;28;20060;-80
2022/12/20 10:45:36;;;;;;;12.35;4.93;;;;;;;-0.45;68.08;103429.72;5024592;28;20555;-79
2022/12/20 10:48:21;;;;;;;5.43;4.05;;;;;;;-0.36;68.10;103441.13;5061598;28;20075;-78
2022/12/20 10:51:09;;;;;;;11.13;6.65;;;;;;;-0.34;67.29;103425.91;5020869;28;20146;-78
2022/12/20 10:53:34;;;;;;;5.00;4.22;;;;;;;-0.04;67.58;103428.81;5050761;28;20475;-78
2022/12/20 10:56:28;;;;;;;6.70;4.53;;;;;;;-0.26;66.31;103385.53;5058882;28;20040;-83
2022/12/20 10:59:01;;;;;;;7.22;5.40;;;;;;;0.02;66.72;103415.47;5060100;28;20020;-85
2022/12/20 11:01:34;;;;;;;5.57;3.90;;;;;;;0.14;66.42;103409.19;5051063;28;20486;-81
2022/12/20 11:04:20;;;;;;;8.93;4.13;;;;;;;-0.03;65.80;103410.19;5035213;28;20028;-87
2022/12/20 11:06:45;;;;;;;6.20;4.45;;;;;;;-0.21;66.14;103394.19;5054040;28;20033;-89
2022/12/20 11:09:26;;;;;;;6.60;4.53;;;;;;;-0.20;66.54;103401.88;5050963;28;20035;-80
2022/12/20 11:12:05;;;;;;;9.55;4.97;;;;;;;-0.27;66.23;103393.97;5066820;28;20044;-78
2022/12/20 11:14:33;;;;;;;11.23;4.85;;;;;;;-0.41;66.40;103367.97;5068977;28;20032;-78
2022/12/20 11:16:59;;;;;;;3.55;2.88;;;;;;;-0.33;65.85;103381.88;5051667;28;20032;-77
2022/12/20 11:19:37;;;;;;;8.00;4.53;;;;;;;-0.28;66.31;103387.16;5051177;28;20072;-87
2022/12/20 11:22:21;;;;;;;10.48;4.97;;;;;;;-0.32;66.66;103379.38;5067990;28;20028;-79
2022/12/20 11:25:10;;;;;;;5.88;3.95;;;;;;;-0.43;66.32;103365.38;5070326;28;20028;-77
2022/12/20 11:27:40;;;;;;;8.90;6.13;;;;;;;-0.34;66.45;103378.47;5071600;28;20028;-79
2022/12/20 11:30:19;;;;;;;8.90;6.05;;;;;;;-0.45;66.93;103361.03;5071570;28;20043;-83
2022/12/20 11:33:08;;;;;;;6.70;5.40;;;;;;;-0.32;65.92;103381.91;5055114;28;20488;-85
2022/12/20 11:35:44;;;;;;;6.35;5.63;;;;;;;-0.35;66.25;103358.91;5072245;28;20036;-79
2022/12/20 11:38:31;;;;;;;6.15;4.50;;;;;;;-0.25;65.52;103364.38;5054850;28;20418;-77
2022/12/20 11:41:06;;;;;;;6.82;4.65;;;;;;;-0.32;66.30;103361.56;5052016;28;20105;-78
2022/12/20 11:44:00;;;;;;;4.70;3.88;;;;;;;-0.42;65.87;103344.22;5071478;28;20028;-80